Time;durP1;ratioP1;P1;durP2;ratioP2;P2;SDS_P1;SDS_P2;PMS_P1;PMS_P2;Temp;Humidity;BMP_temperature;BMP_pressure;BME280_temperature;BME280_humidity;BME280_pressure;Samples;Min_cycle;Max_cycle;Signal;HPM_P1;HPM_P2
2021/04/02 00:01:48;;;;;;;7.47;5.90;;;9.20;99.90;;;;;;5093317;28;20171;-71
2021/04/02 00:04:14;;;;;;;7.40;6.10;;;9.40;99.90;;;;;;5092940;28;20638;-72
2021/04/02 00:06:39;;;;;;;8.27;5.47;;;9.20;99.90;;;;;;5091411;28;20690;-72
2021/04/02 00:09:05;;;;;;;15.20;6.87;;;9.10;99.90;;;;;;5092800;28;20232;-72
2021/04/02 00:11:30;;;;;;;6.17;4.90;;;9.20;99.90;;;;;;5095377;28;20181;-72
2021/04/02 00:13:56;;;;;;;9.90;5.23;;;9.30;99.90;;;;;;5097124;28;20248;-72
2021/04/02 00:16:22;;;;;;;7.23;4.90;;;9.10;99.90;;;;;;5095536;28;20201;-72
2021/04/02 00:18:47;;;;;;;5.23;4.50;;;9.10;99.90;;;;;;5097340;28;20662;-71
2021/04/02 00:21:14;;;;;;;9.17;5.00;;;9.20;99.90;;;;;;5096809;28;20164;-72
2021/04/02 00:23:41;;;;;;;11.70;6.20;;;9.00;99.90;;;;;;5096855;28;20234;-72
2021/04/02 00:26:18;;;;;;;5.43;4.80;;;8.80;99.90;;;;;;5096773;28;20407;-72
2021/04/02 00:28:45;;;;;;;6.27;5.20;;;9.30;99.90;;;;;;5097075;28;20385;-72
2021/04/02 00:31:11;;;;;;;7.10;5.50;;;9.40;99.90;;;;;;5096643;28;20408;-72
2021/04/02 00:33:36;;;;;;;8.63;5.00;;;9.20;99.90;;;;;;5096815;28;20425;-71
2021/04/02 00:36:04;;;;;;;5.73;5.13;;;8.90;99.90;;;;;;5096587;28;20258;-72
2021/04/02 00:38:30;;;;;;;7.40;4.63;;;9.20;99.90;;;;;;5096426;28;20187;-71
2021/04/02 00:41:08;;;;;;;10.93;5.90;;;9.20;99.90;;;;;;5096683;28;20431;-72
2021/04/02 00:43:36;;;;;;;8.57;5.33;;;9.20;99.90;;;;;;5096252;28;20457;-71
2021/04/02 00:46:03;;;;;;;8.77;4.93;;;9.30;99.90;;;;;;5096399;28;20396;-72
2021/04/02 00:48:29;;;;;;;6.20;4.80;;;9.30;99.90;;;;;;5096629;28;20261;-72
2021/04/02 00:50:57;;;;;;;8.77;5.93;;;9.10;99.90;;;;;;5096284;28;20409;-72
2021/04/02 00:53:28;;;;;;;7.60;5.70;;;9.20;99.90;;;;;;5096117;28;20425;-71
2021/04/02 00:55:54;;;;;;;6.33;4.77;;;9.10;99.90;;;;;;5096166;28;20396;-72
2021/04/02 00:58:24;;;;;;;8.80;5.47;;;9.30;99.90;;;;;;5096145;28;20892;-71
2021/04/02 01:00:51;;;;;;;7.67;5.57;;;9.30;99.90;;;;;;5096322;28;20411;-71
2021/04/02 01:03:19;;;;;;;9.47;5.83;;;9.40;99.90;;;;;;5095961;28;20756;-72
2021/04/02 01:05:47;;;;;;;8.67;6.40;;;9.30;99.90;;;;;;5095950;28;20421;-71
2021/04/02 01:08:16;;;;;;;8.80;5.30;;;9.40;99.90;;;;;;5095840;28;20945;-71
2021/04/02 01:10:42;;;;;;;8.70;6.30;;;9.50;99.90;;;;;;5095903;28;20858;-72
2021/04/02 01:13:17;;;;;;;8.10;6.23;;;9.50;99.90;;;;;;5095732;28;20485;-72
2021/04/02 01:15:53;;;;;;;7.60;6.27;;;9.30;99.90;;;;;;5095990;28;20561;-72
2021/04/02 01:18:30;;;;;;;9.00;6.80;;;9.20;99.90;;;;;;5095686;28;20808;-72
2021/04/02 01:20:58;;;;;;;7.03;6.03;;;9.30;99.90;;;;;;5096021;28;20971;-74
2021/04/02 01:23:29;;;;;;;6.40;5.50;;;9.30;99.90;;;;;;5094875;28;20848;-72
2021/04/02 01:26:16;;;;;;;9.93;6.17;;;9.30;99.90;;;;;;5095674;28;20370;-72
2021/04/02 01:29:10;;;;;;;7.47;6.10;;;9.30;99.90;;;;;;5095841;28;20395;-72
2021/04/02 01:31:38;;;;;;;7.47;6.60;;;9.40;99.90;;;;;;5095534;28;20386;-72
2021/04/02 01:34:05;;;;;;;12.07;6.40;;;9.40;99.90;;;;;;5095327;28;20841;-72
2021/04/02 01:36:33;;;;;;;7.70;6.23;;;8.90;99.90;;;;;;5095516;28;21016;-71
2021/04/02 01:38:59;;;;;;;10.50;5.93;;;8.70;99.90;;;;;;5095275;28;20498;-71
2021/04/02 01:41:29;;;;;;;10.30;6.50;;;9.00;99.90;;;;;;5095533;28;20919;-72
2021/04/02 01:43:56;;;;;;;11.27;6.87;;;9.20;99.90;;;;;;5095384;28;20423;-71
2021/04/02 01:46:24;;;;;;;9.90;7.50;;;9.30;99.90;;;;;;5095227;28;20409;-71
2021/04/02 01:48:55;;;;;;;7.07;6.30;;;9.30;99.90;;;;;;5095204;28;20431;-71
2021/04/02 01:51:22;;;;;;;8.40;7.43;;;9.10;99.90;;;;;;5095368;28;20875;-72
2021/04/02 01:53:50;;;;;;;8.90;7.07;;;9.20;99.90;;;;;;5093714;28;20451;-72
2021/04/02 01:56:17;;;;;;;10.27;7.10;;;9.10;99.90;;;;;;5094939;28;20420;-71
2021/04/02 01:58:44;;;;;;;8.97;6.87;;;8.70;99.90;;;;;;5094884;28;20444;-71
2021/04/02 02:01:12;;;;;;;8.57;7.50;;;8.70;99.90;;;;;;5094924;28;20402;-71
2021/04/02 02:03:39;;;;;;;13.63;7.00;;;8.70;99.90;;;;;;5094775;28;20439;-70
2021/04/02 02:06:06;;;;;;;12.33;7.80;;;8.60;99.90;;;;;;5095005;28;20404;-71
2021/04/02 02:08:33;;;;;;;6.90;6.07;;;8.80;99.90;;;;;;5094641;28;20508;-71
2021/04/02 02:11:15;;;;;;;11.20;7.57;;;8.80;99.90;;;;;;5094782;28;20413;-71
2021/04/02 02:13:48;;;;;;;9.03;7.70;;;8.60;99.90;;;;;;5094526;28;20421;-71
2021/04/02 02:16:15;;;;;;;8.80;6.83;;;8.50;99.90;;;;;;5094791;28;20407;-72
2021/04/02 02:18:42;;;;;;;10.13;7.60;;;8.70;99.90;;;;;;5094464;28;20546;-71
2021/04/02 02:21:10;;;;;;;9.53;7.70;;;8.40;99.90;;;;;;5094575;28;20910;-71
2021/04/02 02:23:38;;;;;;;8.70;6.50;;;8.60;99.90;;;;;;5093093;28;20438;-72
2021/04/02 02:26:04;;;;;;;10.80;7.00;;;8.70;99.90;;;;;;5094386;28;21050;-72
2021/04/02 02:28:30;;;;;;;10.43;7.27;;;8.50;99.90;;;;;;5094671;28;20795;-72
2021/04/02 02:30:57;;;;;;;9.33;7.33;;;8.40;99.90;;;;;;5094359;28;20401;-72
2021/04/02 02:33:23;;;;;;;13.53;7.13;;;8.80;99.90;;;;;;5093913;28;20426;-72
2021/04/02 02:35:48;;;;;;;13.10;7.13;;;8.60;99.90;;;;;;5093655;28;20770;-72
2021/04/02 02:38:14;;;;;;;8.80;6.70;;;8.60;99.90;;;;;;5094193;28;20498;-71
2021/04/02 02:40:39;;;;;;;11.50;7.50;;;8.60;99.90;;;;;;5094433;28;20474;-72
2021/04/02 02:43:07;;;;;;;11.43;7.30;;;8.80;99.90;;;;;;5092800;28;20193;-71
2021/04/02 02:45:33;;;;;;;10.70;7.20;;;9.10;99.90;;;;;;5094057;28;20165;-71
2021/04/02 02:47:59;;;;;;;14.63;7.43;;;9.30;99.90;;;;;;5094075;28;20409;-72
2021/04/02 02:50:30;;;;;;;12.50;7.37;;;9.30;99.90;;;;;;5093967;28;20409;-71
2021/04/02 02:52:56;;;;;;;8.50;7.60;;;8.90;99.90;;;;;;5094144;28;20514;-71
2021/04/02 02:55:25;;;;;;;8.77;7.40;;;8.70;99.90;;;;;;5094346;28;20967;-71
2021/04/02 02:57:54;;;;;;;13.00;9.27;;;8.80;99.90;;;;;;5094238;28;20905;-72
2021/04/02 03:00:23;;;;;;;9.00;7.40;;;8.80;99.90;;;;;;5094253;28;20797;-71
2021/04/02 03:02:50;;;;;;;10.97;7.83;;;8.70;99.90;;;;;;5093898;28;20409;-71
2021/04/02 03:05:19;;;;;;;9.10;7.57;;;8.80;99.90;;;;;;5094942;28;20559;-72
2021/04/02 03:07:48;;;;;;;9.70;7.73;;;8.90;99.90;;;;;;5093713;28;20425;-71
2021/04/02 03:10:14;;;;;;;10.70;8.03;;;9.10;99.90;;;;;;5093762;28;20910;-72
2021/04/02 03:12:41;;;;;;;9.70;7.23;;;9.00;99.90;;;;;;5093707;28;20429;-72
2021/04/02 03:15:08;;;;;;;9.70;7.77;;;9.00;99.90;;;;;;5093787;28;20405;-72
2021/04/02 03:17:37;;;;;;;10.80;7.17;;;9.10;99.90;;;;;;5093479;28;20416;-71
2021/04/02 03:20:05;;;;;;;11.52;7.57;;;9.20;99.90;;;;;;5093696;28;20402;-72
2021/04/02 03:22:32;;;;;;;15.83;8.13;;;9.10;99.90;;;;;;5093493;28;20215;-72
2021/04/02 03:25:07;;;;;;;9.57;7.77;;;8.90;99.90;;;;;;5093597;28;20459;-71
2021/04/02 03:27:33;;;;;;;9.57;7.60;;;9.00;99.90;;;;;;5093646;28;20417;-72
2021/04/02 03:29:59;;;;;;;12.57;8.33;;;8.80;99.90;;;;;;5092134;28;20417;-72
2021/04/02 03:32:28;;;;;;;8.97;7.17;;;8.90;99.90;;;;;;5093361;28;20926;-72
2021/04/02 03:34:55;;;;;;;9.70;7.87;;;9.10;99.90;;;;;;5093363;28;20171;-72
2021/04/02 03:37:22;;;;;;;8.60;7.55;;;9.20;99.90;;;;;;5093365;28;20817;-72
2021/04/02 03:39:49;;;;;;;18.73;7.97;;;9.30;99.90;;;;;;5093258;28;20199;-72
2021/04/02 03:42:17;;;;;;;10.37;7.07;;;9.00;99.90;;;;;;5093162;28;20505;-72
2021/04/02 03:44:44;;;;;;;10.10;7.27;;;9.10;99.90;;;;;;5093136;28;20482;-72
2021/04/02 03:47:20;;;;;;;12.13;7.70;;;8.90;99.90;;;;;;5092891;28;20393;-72
2021/04/02 03:49:49;;;;;;;10.20;8.00;;;8.80;99.90;;;;;;5093037;28;20975;-72
2021/04/02 03:52:20;;;;;;;11.32;7.38;;;8.90;99.90;;;;;;5093017;28;20507;-72
2021/04/02 03:54:49;;;;;;;9.43;7.00;;;8.70;99.90;;;;;;5093194;28;20235;-72
2021/04/02 03:57:16;;;;;;;13.00;8.60;;;8.70;99.90;;;;;;5093281;28;20859;-72
2021/04/02 03:59:44;;;;;;;8.83;7.13;;;8.90;99.90;;;;;;5092970;28;20289;-72
2021/04/02 04:02:12;;;;;;;11.50;7.95;;;8.90;99.90;;;;;;5093195;28;20759;-72
2021/04/02 04:04:39;;;;;;;8.45;7.43;;;8.70;99.90;;;;;;5092955;28;20533;-72
2021/04/02 04:07:07;;;;;;;11.23;7.82;;;8.80;99.90;;;;;;5092869;28;20198;-72
2021/04/02 04:09:35;;;;;;;8.10;6.85;;;9.00;99.90;;;;;;5092965;28;20210;-72
2021/04/02 04:12:02;;;;;;;8.17;6.90;;;8.90;99.90;;;;;;5092821;28;20485;-72
2021/04/02 04:14:30;;;;;;;7.70;6.47;;;8.60;99.90;;;;;;5092898;28;20409;-71
2021/04/02 04:16:58;;;;;;;9.00;6.30;;;8.70;99.90;;;;;;5092855;28;20412;-71
2021/04/02 04:19:25;;;;;;;11.37;5.13;;;8.60;99.90;;;;;;5092750;28;20481;-71
2021/04/02 04:21:52;;;;;;;6.63;5.77;;;8.30;99.90;;;;;;5092821;28;21002;-71
2021/04/02 04:24:21;;;;;;;7.00;6.30;;;8.60;99.90;;;;;;5092796;28;20409;-71
2021/04/02 04:26:48;;;;;;;7.68;6.47;;;8.90;99.90;;;;;;5092690;28;20402;-71
2021/04/02 04:29:18;;;;;;;8.93;6.13;;;8.90;99.90;;;;;;5092702;28;20493;-71
2021/04/02 04:31:45;;;;;;;7.90;5.87;;;8.70;99.90;;;;;;5092988;28;20170;-71
2021/04/02 04:34:11;;;;;;;11.20;5.83;;;8.40;99.90;;;;;;5092659;28;20428;-71
2021/04/02 04:36:39;;;;;;;8.57;5.80;;;8.60;99.90;;;;;;5092649;28;20902;-71
2021/04/02 04:39:06;;;;;;;7.93;5.60;;;8.90;99.90;;;;;;5092530;28;20199;-71
2021/04/02 04:41:34;;;;;;;7.90;7.10;;;9.00;99.90;;;;;;5092857;28;20158;-71
2021/04/02 04:44:01;;;;;;;8.53;6.03;;;9.00;99.90;;;;;;5092563;28;20527;-71
2021/04/02 04:46:26;;;;;;;9.30;6.53;;;9.00;99.90;;;;;;5092575;28;21014;-71
2021/04/02 04:48:52;;;;;;;11.57;8.70;;;8.90;99.90;;;;;;5092579;28;20496;-71
2021/04/02 04:51:20;;;;;;;10.10;8.73;;;8.50;99.90;;;;;;5092511;28;20168;-71
2021/04/02 04:53:49;;;;;;;10.50;7.78;;;8.60;99.90;;;;;;5092389;28;20195;-71
2021/04/02 04:56:17;;;;;;;11.77;9.10;;;8.70;99.90;;;;;;5092503;28;20641;-71
2021/04/02 04:58:46;;;;;;;9.70;7.80;;;8.70;99.90;;;;;;5095093;28;20453;-71
2021/04/02 05:01:14;;;;;;;12.50;8.20;;;8.70;99.90;;;;;;5096266;28;20171;-71
2021/04/02 05:03:41;;;;;;;11.25;8.93;;;8.80;99.90;;;;;;5096438;28;20192;-71
2021/04/02 05:06:08;;;;;;;12.20;8.80;;;8.90;99.90;;;;;;5096229;28;20235;-71
2021/04/02 05:08:43;;;;;;;15.63;8.50;;;8.60;99.90;;;;;;5096098;28;20778;-71
2021/04/02 05:11:30;;;;;;;10.43;7.57;;;8.70;99.90;;;;;;5096106;28;20396;-71
2021/04/02 05:13:57;;;;;;;14.07;8.13;;;8.50;99.90;;;;;;5096013;28;20432;-71
2021/04/02 05:16:23;;;;;;;10.98;8.18;;;8.30;99.90;;;;;;5096097;28;20168;-71
2021/04/02 05:18:51;;;;;;;13.67;7.17;;;8.40;99.90;;;;;;5095946;28;20193;-71
2021/04/02 05:21:18;;;;;;;18.02;9.18;;;8.50;99.90;;;;;;5095957;28;20481;-71
2021/04/02 05:23:43;;;;;;;10.50;7.78;;;8.50;99.90;;;;;;5095935;28;20183;-72
2021/04/02 05:26:11;;;;;;;10.07;7.50;;;8.60;99.90;;;;;;5096096;28;20181;-72
2021/04/02 05:28:37;;;;;;;10.70;6.95;;;8.40;99.90;;;;;;5095734;28;20173;-71
2021/04/02 05:31:02;;;;;;;12.33;6.53;;;8.60;99.90;;;;;;5096159;28;20184;-72
2021/04/02 05:33:28;;;;;;;8.30;7.00;;;8.50;99.90;;;;;;5096456;28;20191;-72
2021/04/02 05:35:53;;;;;;;14.20;8.07;;;8.50;99.90;;;;;;5096873;28;20231;-72
2021/04/02 05:38:19;;;;;;;10.43;7.60;;;8.50;99.90;;;;;;5096552;28;20521;-71
2021/04/02 05:40:45;;;;;;;12.60;8.07;;;8.50;99.90;;;;;;5095577;28;20172;-71
2021/04/02 05:43:20;;;;;;;16.73;9.80;;;8.30;99.90;;;;;;5095406;28;20188;-71
2021/04/02 05:45:47;;;;;;;21.88;9.80;;;8.10;99.90;;;;;;5095705;28;20184;-71
2021/04/02 05:48:15;;;;;;;16.08;10.23;;;8.40;99.90;;;;;;5095350;28;20628;-72
2021/04/02 05:50:41;;;;;;;17.03;11.20;;;8.50;99.90;;;;;;5095356;28;20171;-70
2021/04/02 05:53:09;;;;;;;14.57;12.03;;;8.60;99.90;;;;;;5095216;28;21090;-71
2021/04/02 05:55:40;;;;;;;14.73;10.65;;;8.50;99.90;;;;;;5095443;28;20914;-70
2021/04/02 05:58:07;;;;;;;18.00;10.90;;;8.50;99.90;;;;;;5095193;28;20286;-71
2021/04/02 06:00:35;;;;;;;15.93;10.85;;;8.50;99.90;;;;;;5095210;28;20168;-70
2021/04/02 06:03:02;;;;;;;15.90;10.13;;;8.10;99.90;;;;;;5095110;28;20293;-70
2021/04/02 06:05:28;;;;;;;23.50;11.88;;;8.30;99.90;;;;;;5095030;28;20163;-70
2021/04/02 06:07:55;;;;;;;13.47;10.63;;;8.50;99.90;;;;;;5094979;28;20270;-71
2021/04/02 06:10:21;;;;;;;16.43;11.83;;;8.20;99.90;;;;;;5093645;28;20171;-70
2021/04/02 06:12:47;;;;;;;19.03;11.20;;;8.30;99.90;;;;;;5096047;28;20508;-71
2021/04/02 06:15:13;;;;;;;22.67;13.17;;;8.40;99.90;;;;;;5095689;28;20749;-72
2021/04/02 06:17:58;;;;;;;18.95;12.45;;;8.30;99.90;;;;;;5094907;28;20579;-72
2021/04/02 06:20:30;;;;;;;23.70;13.60;;;8.40;99.90;;;;;;5094596;28;20216;-71
2021/04/02 06:23:02;;;;;;;22.90;14.40;;;8.40;99.90;;;;;;5094460;28;20669;-72
2021/04/02 06:25:28;;;;;;;21.60;13.43;;;8.10;99.90;;;;;;5094574;28;20238;-72
2021/04/02 06:27:54;;;;;;;25.33;13.30;;;8.10;99.90;;;;;;5094550;28;20262;-72
2021/04/02 06:30:23;;;;;;;20.53;13.70;;;8.40;99.90;;;;;;5095022;28;20179;-71
2021/04/02 06:32:52;;;;;;;24.40;13.27;;;8.40;99.90;;;;;;5094496;28;20183;-72
2021/04/02 06:35:22;;;;;;;24.23;13.82;;;8.40;99.90;;;;;;5094748;28;20637;-72
2021/04/02 06:37:54;;;;;;;23.70;13.90;;;8.40;99.90;;;;;;5094637;28;20179;-72
2021/04/02 06:40:20;;;;;;;19.77;14.30;;;8.50;99.90;;;;;;5094540;28;20202;-72
2021/04/02 06:42:46;;;;;;;22.83;13.45;;;8.00;99.90;;;;;;5094384;28;20203;-72
2021/04/02 06:45:13;;;;;;;21.80;13.70;;;8.30;99.90;;;;;;5094494;28;20183;-72
2021/04/02 06:47:40;;;;;;;27.35;15.02;;;8.40;99.90;;;;;;5094239;28;20190;-72
2021/04/02 06:50:21;;;;;;;24.10;13.65;;;8.40;99.90;;;;;;5092914;28;20707;-72
2021/04/02 06:52:49;;;;;;;21.33;13.77;;;8.60;99.90;;;;;;5094050;28;20198;-71
2021/04/02 06:55:15;;;;;;;23.52;12.73;;;8.70;99.90;;;;;;5094378;28;20206;-71
2021/04/02 06:57:52;;;;;;;23.20;13.32;;;8.40;99.90;;;;;;5093957;28;20305;-72
2021/04/02 07:00:20;;;;;;;22.02;12.80;;;8.50;99.90;;;;;;5094402;28;20156;-71
2021/04/02 07:02:47;;;;;;;21.42;12.80;;;8.70;99.90;;;;;;5093794;28;20198;-72
2021/04/02 07:05:16;;;;;;;23.58;12.38;;;8.30;99.90;;;;;;5094239;28;20585;-71
2021/04/02 07:07:43;;;;;;;26.77;12.68;;;8.60;99.90;;;;;;5093659;28;20636;-71
2021/04/02 07:10:10;;;;;;;19.88;12.50;;;8.80;99.90;;;;;;5093882;28;20167;-71
2021/04/02 07:12:38;;;;;;;17.63;10.68;;;8.60;99.90;;;;;;5094142;28;20198;-71
2021/04/02 07:15:05;;;;;;;16.80;12.10;;;8.70;99.90;;;;;;5093496;28;20169;-71
2021/04/02 07:17:31;;;;;;;19.45;12.40;;;8.80;99.90;;;;;;5093905;28;20206;-71
2021/04/02 07:19:57;;;;;;;22.33;12.13;;;8.80;99.90;;;;;;5093012;28;20210;-71
2021/04/02 07:22:24;;;;;;;14.63;10.38;;;8.70;99.90;;;;;;5093551;28;20548;-71
2021/04/02 07:24:50;;;;;;;17.60;9.60;;;8.00;99.90;;;;;;5093550;28;20536;-71
2021/04/02 07:27:16;;;;;;;11.87;8.47;;;8.30;99.90;;;;;;5093514;28;20263;-71
2021/04/02 07:29:42;;;;;;;17.20;10.17;;;8.60;99.90;;;;;;5093542;28;20740;-71
2021/04/02 07:32:08;;;;;;;14.63;8.25;;;8.60;99.90;;;;;;5093500;28;20189;-71
2021/04/02 07:34:34;;;;;;;13.32;9.90;;;8.70;99.90;;;;;;5093191;28;20225;-71
2021/04/02 07:37:00;;;;;;;19.92;10.85;;;8.70;99.90;;;;;;5093492;28;20171;-71
2021/04/02 07:39:30;;;;;;;29.80;10.90;;;8.60;99.90;;;;;;5093500;28;20202;-71
2021/04/02 07:41:56;;;;;;;16.70;10.20;;;8.60;99.90;;;;;;5093091;28;20540;-71
2021/04/02 07:44:22;;;;;;;15.00;10.77;;;8.70;99.90;;;;;;5093165;28;20174;-70
2021/04/02 07:47:07;;;;;;;14.20;10.07;;;9.00;99.90;;;;;;5093184;28;20417;-71
2021/04/02 07:49:39;;;;;;;22.03;10.60;;;8.70;99.90;;;;;;5093477;28;20155;-71
2021/04/02 07:52:05;;;;;;;11.90;9.80;;;8.70;99.90;;;;;;5093043;28;20754;-72
2021/04/02 07:54:41;;;;;;;17.08;10.13;;;9.10;99.90;;;;;;5093322;28;20414;-72
2021/04/02 07:57:12;;;;;;;12.57;9.07;;;9.10;99.90;;;;;;5093044;28;20528;-71
2021/04/02 07:59:44;;;;;;;15.43;9.45;;;8.80;99.90;;;;;;5092858;28;20560;-72
2021/04/02 08:02:29;;;;;;;12.13;8.98;;;9.00;99.90;;;;;;5093176;28;20277;-72
2021/04/02 08:04:57;;;;;;;11.98;9.00;;;9.20;99.90;;;;;;5093273;28;20508;-72
2021/04/02 08:07:37;;;;;;;13.23;8.32;;;9.50;99.90;;;;;;5092974;28;20163;-72
2021/04/02 08:10:07;;;;;;;14.50;8.60;;;9.30;99.90;;;;;;5092966;28;20579;-72
2021/04/02 08:12:33;;;;;;;14.75;7.32;;;8.70;99.90;;;;;;5092909;28;20186;-72
2021/04/02 08:15:04;;;;;;;11.53;7.50;;;9.20;99.90;;;;;;5093091;28;20763;-72
2021/04/02 08:17:30;;;;;;;10.93;7.87;;;9.00;99.90;;;;;;5093027;28;20870;-72
2021/04/02 08:20:07;;;;;;;10.07;6.60;;;9.10;99.90;;;;;;5092663;28;20454;-71
2021/04/02 08:22:33;;;;;;;9.97;6.47;;;9.20;99.90;;;;;;5092991;28;20225;-72
2021/04/02 08:25:01;;;;;;;10.07;6.97;;;8.90;99.90;;;;;;5092925;28;20398;-72
2021/04/02 08:27:30;;;;;;;10.27;6.63;;;9.20;99.90;;;;;;5092700;28;20408;-71
2021/04/02 08:30:03;;;;;;;10.13;6.37;;;9.40;99.90;;;;;;5092723;28;20421;-71
2021/04/02 08:32:35;;;;;;;9.18;5.80;;;9.10;99.90;;;;;;5092753;28;20434;-71
2021/04/02 08:35:01;;;;;;;8.63;5.30;;;9.40;99.90;;;;;;5097515;28;20524;-71
2021/04/02 08:37:29;;;;;;;10.35;5.47;;;9.20;99.90;;;;;;5096684;28;20409;-71
2021/04/02 08:39:58;;;;;;;15.93;5.80;;;9.20;99.90;;;;;;5096588;28;20214;-71
2021/04/02 08:42:28;;;;;;;9.07;4.83;;;9.50;99.90;;;;;;5096960;28;20229;-71
2021/04/02 08:44:54;;;;;;;6.40;4.00;;;8.90;99.90;;;;;;5096856;28;20745;-71
2021/04/02 08:47:20;;;;;;;5.60;4.07;;;9.30;99.90;;;;;;5096304;28;20393;-71
2021/04/02 08:49:52;;;;;;;4.83;3.70;;;9.00;99.90;;;;;;5096861;28;20179;-72
2021/04/02 08:52:27;;;;;;;6.38;3.55;;;9.00;99.90;;;;;;5097001;28;20189;-73
2021/04/02 08:55:06;;;;;;;5.00;4.30;;;9.00;99.90;;;;;;5097343;28;20192;-72
2021/04/02 08:57:33;;;;;;;7.27;4.80;;;9.00;99.90;;;;;;5096512;28;20424;-71
2021/04/02 09:00:00;;;;;;;7.77;4.30;;;9.10;99.90;;;;;;5096298;28;20494;-71
2021/04/02 09:02:28;;;;;;;9.83;3.97;;;9.80;99.90;;;;;;5095822;28;20429;-71
2021/04/02 09:04:54;;;;;;;5.82;4.22;;;9.20;99.90;;;;;;5096287;28;20451;-71
2021/04/02 09:07:20;;;;;;;6.13;4.07;;;9.30;99.90;;;;;;5096298;28;20163;-71
2021/04/02 09:09:47;;;;;;;6.57;4.00;;;8.90;99.90;;;;;;5096475;28;20873;-72
2021/04/02 09:12:18;;;;;;;4.70;3.90;;;9.60;99.90;;;;;;5096176;28;20561;-71
2021/04/02 09:14:46;;;;;;;9.27;4.60;;;9.40;99.90;;;;;;5096210;28;20413;-72
2021/04/02 09:17:23;;;;;;;9.60;5.27;;;9.50;99.90;;;;;;5096255;28;20444;-72
2021/04/02 09:19:50;;;;;;;5.73;5.00;;;9.60;99.90;;;;;;5095893;28;20429;-72
2021/04/02 09:22:16;;;;;;;8.07;5.30;;;9.50;99.90;;;;;;5095861;28;20490;-72
2021/04/02 09:24:44;;;;;;;8.73;6.20;;;9.40;99.90;;;;;;5095897;28;20763;-72
2021/04/02 09:27:13;;;;;;;7.30;5.70;;;9.50;99.90;;;;;;5096832;28;20399;-72
2021/04/02 09:29:45;;;;;;;12.20;6.30;;;9.70;99.90;;;;;;5095812;28;20410;-72
2021/04/02 09:32:11;;;;;;;6.80;5.77;;;9.80;99.90;;;;;;5094406;28;20511;-72
2021/04/02 09:34:37;;;;;;;8.80;6.20;;;9.40;99.90;;;;;;5095952;28;20418;-72
2021/04/02 09:37:04;;;;;;;9.80;5.00;;;9.30;99.90;;;;;;5095729;28;20173;-72
2021/04/02 09:39:34;;;;;;;12.20;4.90;;;9.80;99.90;;;;;;5095552;28;20451;-72
2021/04/02 09:42:04;;;;;;;9.10;5.30;;;9.70;99.90;;;;;;5095799;28;20414;-72
2021/04/02 09:44:33;;;;;;;7.90;5.10;;;9.90;99.90;;;;;;5094834;28;20492;-72
2021/04/02 09:47:09;;;;;;;9.03;5.83;;;9.50;99.90;;;;;;5094298;28;20424;-72
2021/04/02 09:49:36;;;;;;;15.33;8.67;;;9.60;99.90;;;;;;5095329;28;20383;-72
2021/04/02 09:52:03;;;;;;;13.97;8.20;;;9.40;99.90;;;;;;5095288;28;20440;-72
2021/04/02 09:54:33;;;;;;;16.73;9.60;;;10.00;99.90;;;;;;5095333;28;20432;-72
2021/04/02 09:57:04;;;;;;;21.73;13.17;;;9.80;99.90;;;;;;5095267;28;20458;-72
2021/04/02 09:59:30;;;;;;;15.30;10.13;;;9.60;99.90;;;;;;5095554;28;20528;-72
2021/04/02 10:01:56;;;;;;;18.00;10.60;;;10.10;99.90;;;;;;5095190;28;20497;-72
2021/04/02 10:04:22;;;;;;;16.40;10.00;;;10.00;99.90;;;;;;5095269;28;20432;-72
2021/04/02 10:06:48;;;;;;;15.47;10.13;;;9.70;99.90;;;;;;5095461;28;20175;-72
2021/04/02 10:09:14;;;;;;;20.45;11.52;;;10.00;99.90;;;;;;5094966;28;20534;-72
2021/04/02 10:11:44;;;;;;;18.63;11.60;;;9.70;99.90;;;;;;5095106;28;20672;-71
2021/04/02 10:14:10;;;;;;;23.90;11.87;;;10.10;99.90;;;;;;5094805;28;20918;-72
2021/04/02 10:16:36;;;;;;;22.17;11.87;;;10.40;99.90;;;;;;5094794;28;20414;-71
2021/04/02 10:19:03;;;;;;;19.47;10.50;;;10.00;99.90;;;;;;5094804;28;20806;-72
2021/04/02 10:21:29;;;;;;;17.77;10.27;;;10.30;99.90;;;;;;5095151;28;20163;-71
2021/04/02 10:23:55;;;;;;;16.33;10.17;;;10.00;99.90;;;;;;5094555;28;20965;-72
2021/04/02 10:26:20;;;;;;;19.03;11.00;;;10.20;99.90;;;;;;5093321;28;20414;-72
2021/04/02 10:28:46;;;;;;;17.37;10.67;;;10.00;99.90;;;;;;5094646;28;20171;-71
2021/04/02 10:31:12;;;;;;;15.17;9.20;;;10.20;99.90;;;;;;5094909;28;20197;-72
2021/04/02 10:33:38;;;;;;;20.03;10.13;;;10.60;99.90;;;;;;5094524;28;20235;-72
2021/04/02 10:36:05;;;;;;;16.93;9.70;;;10.90;99.90;;;;;;5094489;28;20840;-72
2021/04/02 10:38:31;;;;;;;18.73;9.97;;;10.80;99.90;;;;;;5093983;28;20559;-72
2021/04/02 10:40:56;;;;;;;22.33;10.07;;;10.70;99.90;;;;;;5094700;28;20404;-72
2021/04/02 10:43:22;;;;;;;14.63;8.30;;;10.20;99.90;;;;;;5094768;28;20186;-71
2021/04/02 10:45:48;;;;;;;14.07;9.10;;;9.80;99.90;;;;;;5094425;28;20194;-71
2021/04/02 10:48:14;;;;;;;13.93;8.37;;;9.60;99.90;;;;;;5094520;28;20405;-72
2021/04/02 10:50:41;;;;;;;16.33;9.90;;;10.70;99.90;;;;;;5094186;28;20550;-71
2021/04/02 10:53:07;;;;;;;13.40;7.80;;;10.80;99.90;;;;;;5093858;28;20187;-72
2021/04/02 10:55:33;;;;;;;10.47;8.00;;;11.50;99.90;;;;;;5093283;28;20450;-71
2021/04/02 10:57:58;;;;;;;9.00;7.20;;;11.00;99.90;;;;;;5093816;28;20397;-71
2021/04/02 11:00:24;;;;;;;12.10;9.60;;;11.50;99.90;;;;;;5094084;28;20406;-71
2021/04/02 11:02:51;;;;;;;10.20;7.10;;;11.60;99.90;;;;;;5093897;28;20183;-72
2021/04/02 11:05:18;;;;;;;18.03;8.37;;;12.00;99.90;;;;;;5094247;28;20398;-71
2021/04/02 11:07:43;;;;;;;12.33;8.73;;;11.10;99.90;;;;;;5092280;28;20429;-71
2021/04/02 11:10:11;;;;;;;11.27;8.53;;;11.00;99.90;;;;;;5093747;28;20406;-71
2021/04/02 11:12:37;;;;;;;12.17;7.53;;;11.40;99.90;;;;;;5093924;28;20179;-71
2021/04/02 11:15:04;;;;;;;10.27;8.00;;;12.20;99.90;;;;;;5093936;28;20413;-71
2021/04/02 11:17:30;;;;;;;10.60;7.30;;;12.00;99.90;;;;;;5093493;28;20171;-72
2021/04/02 11:19:57;;;;;;;9.43;7.47;;;11.50;99.90;;;;;;5093682;28;20457;-71
2021/04/02 11:22:23;;;;;;;9.90;8.17;;;11.50;99.90;;;;;;5093938;28;20179;-72
2021/04/02 11:24:49;;;;;;;10.90;7.17;;;11.80;99.90;;;;;;5093494;28;20475;-72
2021/04/02 11:27:15;;;;;;;9.70;6.73;;;11.80;99.90;;;;;;5093454;28;20393;-72
2021/04/02 11:29:40;;;;;;;14.83;9.10;;;11.80;99.90;;;;;;5093413;28;20168;-71
2021/04/02 11:32:10;;;;;;;10.90;6.93;;;11.50;99.90;;;;;;5093355;28;20246;-71
2021/04/02 11:34:37;;;;;;;10.57;6.60;;;11.60;99.90;;;;;;5093260;28;20198;-71
2021/04/02 11:37:03;;;;;;;9.07;6.83;;;11.70;99.90;;;;;;5093639;28;20410;-71
2021/04/02 11:39:29;;;;;;;12.57;7.90;;;11.50;99.90;;;;;;5093214;28;20814;-72
2021/04/02 11:41:56;;;;;;;7.10;5.80;;;11.60;99.90;;;;;;5093288;28;20404;-71
2021/04/02 11:44:21;;;;;;;9.40;6.40;;;11.30;99.90;;;;;;5093300;28;20164;-72
2021/04/02 11:46:49;;;;;;;11.33;5.67;;;11.40;99.90;;;;;;5093245;28;20424;-72
2021/04/02 11:49:14;;;;;;;9.20;6.60;;;11.60;99.90;;;;;;5093715;28;20171;-72
2021/04/02 11:51:40;;;;;;;8.80;5.13;;;12.00;99.90;;;;;;5093246;28;20775;-72
2021/04/02 11:54:06;;;;;;;7.20;5.20;;;12.00;99.90;;;;;;5093025;28;20187;-72
2021/04/02 11:56:31;;;;;;;8.50;5.20;;;12.00;99.90;;;;;;5093043;28;20183;-72
2021/04/02 11:58:57;;;;;;;10.60;4.57;;;12.20;99.90;;;;;;5091742;28;20202;-72
2021/04/02 12:01:23;;;;;;;5.03;4.13;;;11.70;99.90;;;;;;5093203;28;20167;-72
2021/04/02 12:03:48;;;;;;;6.30;4.60;;;11.70;99.90;;;;;;5092961;28;20683;-72
2021/04/02 12:06:14;;;;;;;6.33;5.03;;;11.50;99.90;;;;;;5092829;28;20172;-72
2021/04/02 12:08:40;;;;;;;4.93;4.10;;;12.20;99.90;;;;;;5092761;28;20433;-73
2021/04/02 12:11:05;;;;;;;7.53;4.10;;;12.00;99.90;;;;;;5092561;28;20342;-72
2021/04/02 12:13:31;;;;;;;7.47;4.23;;;11.90;99.90;;;;;;5092549;28;20194;-72
2021/04/02 12:15:56;;;;;;;5.20;4.03;;;11.90;99.90;;;;;;5093260;28;20655;-72
2021/04/02 12:18:22;;;;;;;9.57;4.70;;;12.00;99.90;;;;;;5092654;28;20253;-73
2021/04/02 12:20:48;;;;;;;7.63;4.83;;;12.10;99.90;;;;;;5092652;28;20170;-72
2021/04/02 12:23:15;;;;;;;9.50;5.17;;;10.60;99.90;;;;;;5092753;28;20417;-72
2021/04/02 12:25:40;;;;;;;5.00;4.50;;;11.00;99.90;;;;;;5092825;28;20440;-72
2021/04/02 12:28:06;;;;;;;6.77;4.80;;;10.90;99.90;;;;;;5092617;28;20397;-72
2021/04/02 12:30:32;;;;;;;7.73;4.70;;;11.50;99.90;;;;;;5093073;28;20176;-73
2021/04/02 12:32:58;;;;;;;9.37;6.80;;;11.40;99.90;;;;;;5092698;28;20522;-72
2021/04/02 12:35:24;;;;;;;11.80;7.30;;;11.50;99.90;;;;;;5092854;28;20401;-72
2021/04/02 12:37:50;;;;;;;13.73;7.60;;;11.20;99.90;;;;;;5092789;28;20652;-73
2021/04/02 12:40:18;;;;;;;17.70;10.87;;;11.40;99.90;;;;;;5092852;28;20409;-73
2021/04/02 12:42:44;;;;;;;18.53;13.07;;;11.40;99.90;;;;;;5092783;28;20195;-72
2021/04/02 12:45:11;;;;;;;20.03;15.60;;;11.40;99.90;;;;;;5092363;28;20405;-73
2021/04/02 12:47:38;;;;;;;21.73;15.90;;;11.40;99.90;;;;;;5092721;28;20405;-72
2021/04/02 12:50:11;;;;;;;29.40;19.10;;;11.40;99.90;;;;;;5092559;28;20425;-72